sensor_id;sensor_type;location;lat;lon;timestamp;temperature;humidity
69626;DHT22;56847;51.984;5.088;2022-11-15T01:04:23;10.30;79.70
69626;DHT22;56847;51.984;5.088;2022-11-15T01:08:10;10.20;79.80
69626;DHT22;56847;51.984;5.088;2022-11-15T01:15:59;10.30;79.90
69626;DHT22;56847;51.984;5.088;2022-11-15T02:02:33;10.80;80.30
69626;DHT22;56847;51.984;5.088;2022-11-15T02:18:17;10.90;80.60
69626;DHT22;56847;51.984;5.088;2022-11-15T02:25:37;11.00;80.70
69626;DHT22;56847;51.984;5.088;2022-11-15T02:29:05;11.10;80.70
69626;DHT22;56847;51.984;5.088;2022-11-15T02:32:40;11.10;80.70
69626;DHT22;56847;51.984;5.088;2022-11-15T02:36:02;11.10;80.80
69626;DHT22;56847;51.984;5.088;2022-11-15T02:39:34;11.10;80.80
69626;DHT22;56847;51.984;5.088;2022-11-15T02:43:24;11.20;80.70
69626;DHT22;56847;51.984;5.088;2022-11-15T02:47:12;11.20;80.80
69626;DHT22;56847;51.984;5.088;2022-11-15T02:50:25;11.30;80.80
69626;DHT22;56847;51.984;5.088;2022-11-15T02:53:54;11.30;80.80
69626;DHT22;56847;51.984;5.088;2022-11-15T03:07:00;11.40;80.90
69626;DHT22;56847;51.984;5.088;2022-11-15T03:45:54;11.80;81.50
69626;DHT22;56847;51.984;5.088;2022-11-15T03:55:46;11.90;81.50
69626;DHT22;56847;51.984;5.088;2022-11-15T03:58:58;12.00;81.50
69626;DHT22;56847;51.984;5.088;2022-11-15T04:01:55;12.00;81.60
69626;DHT22;56847;51.984;5.088;2022-11-15T04:05:12;12.00;82.00
69626;DHT22;56847;51.984;5.088;2022-11-15T04:17:41;12.10;82.00
69626;DHT22;56847;51.984;5.088;2022-11-15T04:21:07;12.10;82.20
69626;DHT22;56847;51.984;5.088;2022-11-15T04:24:40;12.10;82.10
69626;DHT22;56847;51.984;5.088;2022-11-15T04:27:55;12.20;81.90
69626;DHT22;56847;51.984;5.088;2022-11-15T04:34:32;12.20;81.80
69626;DHT22;56847;51.984;5.088;2022-11-15T04:37:50;12.20;81.90
69626;DHT22;56847;51.984;5.088;2022-11-15T04:40:54;12.20;81.70
69626;DHT22;56847;51.984;5.088;2022-11-15T04:44:13;12.20;81.80
69626;DHT22;56847;51.984;5.088;2022-11-15T04:47:19;12.10;81.70
69626;DHT22;56847;51.984;5.088;2022-11-15T04:50:36;12.10;82.10
69626;DHT22;56847;51.984;5.088;2022-11-15T04:53:57;12.10;82.00
69626;DHT22;56847;51.984;5.088;2022-11-15T04:57:31;12.20;82.20
69626;DHT22;56847;51.984;5.088;2022-11-15T05:00:47;12.20;82.20
69626;DHT22;56847;51.984;5.088;2022-11-15T05:04:06;12.20;82.10
69626;DHT22;56847;51.984;5.088;2022-11-15T05:11:24;12.30;82.20
69626;DHT22;56847;51.984;5.088;2022-11-15T05:14:35;12.30;82.60
69626;DHT22;56847;51.984;5.088;2022-11-15T05:17:53;12.30;82.90
69626;DHT22;56847;51.984;5.088;2022-11-15T05:21:14;12.40;82.90
69626;DHT22;56847;51.984;5.088;2022-11-15T05:24:50;12.40;82.80
69626;DHT22;56847;51.984;5.088;2022-11-15T05:27:56;12.40;82.80
69626;DHT22;56847;51.984;5.088;2022-11-15T05:31:56;12.50;83.00
69626;DHT22;56847;51.984;5.088;2022-11-15T05:52:50;12.70;83.00
69626;DHT22;56847;51.984;5.088;2022-11-15T06:04:53;12.70;82.80
69626;DHT22;56847;51.984;5.088;2022-11-15T06:07:39;12.70;82.90
69626;DHT22;56847;51.984;5.088;2022-11-15T06:10:27;12.80;83.00
69626;DHT22;56847;51.984;5.088;2022-11-15T06:13:13;12.80;82.80
69626;DHT22;56847;51.984;5.088;2022-11-15T06:15:59;12.80;82.80
69626;DHT22;56847;51.984;5.088;2022-11-15T06:18:44;12.80;82.80
69626;DHT22;56847;51.984;5.088;2022-11-15T06:21:30;12.80;82.80
69626;DHT22;56847;51.984;5.088;2022-11-15T06:24:15;12.80;82.80
69626;DHT22;56847;51.984;5.088;2022-11-15T06:27:01;12.80;82.60
69626;DHT22;56847;51.984;5.088;2022-11-15T06:29:46;12.80;82.70
69626;DHT22;56847;51.984;5.088;2022-11-15T06:32:32;12.80;82.70
69626;DHT22;56847;51.984;5.088;2022-11-15T06:35:17;12.80;82.60
69626;DHT22;56847;51.984;5.088;2022-11-15T06:38:08;12.80;82.50
69626;DHT22;56847;51.984;5.088;2022-11-15T06:40:54;12.90;82.50
69626;DHT22;56847;51.984;5.088;2022-11-15T06:43:40;12.90;82.50
69626;DHT22;56847;51.984;5.088;2022-11-15T06:46:25;12.90;82.60
69626;DHT22;56847;51.984;5.088;2022-11-15T06:49:10;12.90;82.50
69626;DHT22;56847;51.984;5.088;2022-11-15T06:51:56;12.90;82.50
69626;DHT22;56847;51.984;5.088;2022-11-15T06:54:42;12.90;82.50
69626;DHT22;56847;51.984;5.088;2022-11-15T06:57:27;12.90;82.40
69626;DHT22;56847;51.984;5.088;2022-11-15T07:00:13;12.80;82.30
69626;DHT22;56847;51.984;5.088;2022-11-15T07:03:00;12.80;82.10
69626;DHT22;56847;51.984;5.088;2022-11-15T07:05:56;12.70;82.10
69626;DHT22;56847;51.984;5.088;2022-11-15T07:08:49;12.70;82.30
69626;DHT22;56847;51.984;5.088;2022-11-15T07:11:35;12.70;82.40
69626;DHT22;56847;51.984;5.088;2022-11-15T07:14:20;12.70;82.30
69626;DHT22;56847;51.984;5.088;2022-11-15T07:17:06;12.70;82.20
69626;DHT22;56847;51.984;5.088;2022-11-15T07:19:52;12.60;82.10
69626;DHT22;56847;51.984;5.088;2022-11-15T07:22:37;12.60;82.00
69626;DHT22;56847;51.984;5.088;2022-11-15T07:25:23;12.60;82.30
69626;DHT22;56847;51.984;5.088;2022-11-15T07:28:08;12.60;82.30
69626;DHT22;56847;51.984;5.088;2022-11-15T07:30:54;12.60;82.40
69626;DHT22;56847;51.984;5.088;2022-11-15T07:33:40;12.50;82.40
69626;DHT22;56847;51.984;5.088;2022-11-15T07:36:25;12.50;82.40
69626;DHT22;56847;51.984;5.088;2022-11-15T07:39:10;12.50;82.40
69626;DHT22;56847;51.984;5.088;2022-11-15T07:41:57;12.50;82.40
69626;DHT22;56847;51.984;5.088;2022-11-15T07:45:01;12.50;82.40
69626;DHT22;56847;51.984;5.088;2022-11-15T07:47:48;12.40;82.60
69626;DHT22;56847;51.984;5.088;2022-11-15T07:50:34;12.40;82.80
69626;DHT22;56847;51.984;5.088;2022-11-15T07:53:19;12.50;82.90
69626;DHT22;56847;51.984;5.088;2022-11-15T07:56:09;12.60;82.90
69626;DHT22;56847;51.984;5.088;2022-11-15T07:58:54;12.70;82.90
69626;DHT22;56847;51.984;5.088;2022-11-15T08:01:39;12.70;82.90
69626;DHT22;56847;51.984;5.088;2022-11-15T08:04:25;12.80;82.80
69626;DHT22;56847;51.984;5.088;2022-11-15T08:07:11;12.90;82.70
69626;DHT22;56847;51.984;5.088;2022-11-15T08:09:57;12.90;82.70
69626;DHT22;56847;51.984;5.088;2022-11-15T08:12:42;13.00;82.60
69626;DHT22;56847;51.984;5.088;2022-11-15T08:15:29;13.00;82.70
69626;DHT22;56847;51.984;5.088;2022-11-15T08:18:16;13.10;82.50
69626;DHT22;56847;51.984;5.088;2022-11-15T08:21:01;13.10;82.40
69626;DHT22;56847;51.984;5.088;2022-11-15T08:23:47;13.20;82.40
69626;DHT22;56847;51.984;5.088;2022-11-15T08:26:32;13.20;82.20
69626;DHT22;56847;51.984;5.088;2022-11-15T08:29:18;13.30;82.20
69626;DHT22;56847;51.984;5.088;2022-11-15T08:32:04;13.30;82.10
69626;DHT22;56847;51.984;5.088;2022-11-15T08:34:49;13.40;82.00
69626;DHT22;56847;51.984;5.088;2022-11-15T08:37:35;13.40;81.80
69626;DHT22;56847;51.984;5.088;2022-11-15T08:40:21;13.40;81.70
69626;DHT22;56847;51.984;5.088;2022-11-15T08:43:08;13.40;81.40
69626;DHT22;56847;51.984;5.088;2022-11-15T08:45:56;13.40;81.50
69626;DHT22;56847;51.984;5.088;2022-11-15T08:48:42;13.40;81.50
69626;DHT22;56847;51.984;5.088;2022-11-15T08:51:28;13.40;81.20
69626;DHT22;56847;51.984;5.088;2022-11-15T08:54:13;13.40;81.20
69626;DHT22;56847;51.984;5.088;2022-11-15T08:57:00;13.50;81.40
69626;DHT22;56847;51.984;5.088;2022-11-15T08:59:46;13.60;81.10
69626;DHT22;56847;51.984;5.088;2022-11-15T09:02:31;13.70;81.00
69626;DHT22;56847;51.984;5.088;2022-11-15T09:05:17;13.70;80.70
69626;DHT22;56847;51.984;5.088;2022-11-15T09:08:04;13.80;80.70
69626;DHT22;56847;51.984;5.088;2022-11-15T09:11:10;13.70;80.50
69626;DHT22;56847;51.984;5.088;2022-11-15T09:13:56;13.70;80.50
69626;DHT22;56847;51.984;5.088;2022-11-15T09:16:42;13.80;80.30
69626;DHT22;56847;51.984;5.088;2022-11-15T09:19:27;13.80;80.20
69626;DHT22;56847;51.984;5.088;2022-11-15T09:22:13;13.80;79.90
69626;DHT22;56847;51.984;5.088;2022-11-15T09:24:59;13.80;80.00
69626;DHT22;56847;51.984;5.088;2022-11-15T09:27:45;13.80;79.80
69626;DHT22;56847;51.984;5.088;2022-11-15T09:30:30;13.80;79.60
69626;DHT22;56847;51.984;5.088;2022-11-15T09:33:16;13.80;79.40
69626;DHT22;56847;51.984;5.088;2022-11-15T09:36:04;13.80;79.60
69626;DHT22;56847;51.984;5.088;2022-11-15T09:38:50;13.80;79.50
69626;DHT22;56847;51.984;5.088;2022-11-15T09:50:54;14.00;78.90
69626;DHT22;56847;51.984;5.088;2022-11-15T09:56:44;14.00;78.80
69626;DHT22;56847;51.984;5.088;2022-11-15T10:04:47;14.20;78.30
69626;DHT22;56847;51.984;5.088;2022-11-15T10:07:17;14.30;78.40
69626;DHT22;56847;51.984;5.088;2022-11-15T10:12:19;14.50;77.80
69626;DHT22;56847;51.984;5.088;2022-11-15T10:14:50;14.60;77.10
69626;DHT22;56847;51.984;5.088;2022-11-15T10:18:08;14.60;76.80
69626;DHT22;56847;51.984;5.088;2022-11-15T10:20:29;14.50;76.60
69626;DHT22;56847;51.984;5.088;2022-11-15T10:23:00;14.50;76.50
69626;DHT22;56847;51.984;5.088;2022-11-15T10:25:29;14.50;76.40
69626;DHT22;56847;51.984;5.088;2022-11-15T10:30:39;14.50;76.40
69626;DHT22;56847;51.984;5.088;2022-11-15T10:33:32;14.40;76.10
69626;DHT22;56847;51.984;5.088;2022-11-15T10:41:27;14.30;76.00
69626;DHT22;56847;51.984;5.088;2022-11-15T10:44:12;14.40;75.80
69626;DHT22;56847;51.984;5.088;2022-11-15T10:46:45;14.40;75.70
69626;DHT22;56847;51.984;5.088;2022-11-15T10:49:20;14.50;75.40
69626;DHT22;56847;51.984;5.088;2022-11-15T10:51:56;14.60;75.50
69626;DHT22;56847;51.984;5.088;2022-11-15T10:54:35;14.60;74.70
69626;DHT22;56847;51.984;5.088;2022-11-15T10:57:10;14.60;74.60
69626;DHT22;56847;51.984;5.088;2022-11-15T10:59:44;14.60;74.70
69626;DHT22;56847;51.984;5.088;2022-11-15T11:02:45;14.60;74.70
69626;DHT22;56847;51.984;5.088;2022-11-15T11:05:40;14.60;74.60
69626;DHT22;56847;51.984;5.088;2022-11-15T11:10:58;14.60;73.90
69626;DHT22;56847;51.984;5.088;2022-11-15T11:13:38;14.60;73.70
69626;DHT22;56847;51.984;5.088;2022-11-15T11:16:26;14.60;73.50
69626;DHT22;56847;51.984;5.088;2022-11-15T11:35:23;14.60;73.40
69626;DHT22;56847;51.984;5.088;2022-11-15T11:48:14;14.90;72.20
69626;DHT22;56847;51.984;5.088;2022-11-15T11:50:48;15.00;71.30
69626;DHT22;56847;51.984;5.088;2022-11-15T11:53:34;15.10;71.10
69626;DHT22;56847;51.984;5.088;2022-11-15T11:56:14;15.10;70.60
69626;DHT22;56847;51.984;5.088;2022-11-15T11:58:44;15.10;70.40
69626;DHT22;56847;51.984;5.088;2022-11-15T12:01:36;15.10;70.40
69626;DHT22;56847;51.984;5.088;2022-11-15T12:04:29;15.10;70.00
69626;DHT22;56847;51.984;5.088;2022-11-15T12:07:21;15.10;70.30
69626;DHT22;56847;51.984;5.088;2022-11-15T12:12:44;15.10;70.50
69626;DHT22;56847;51.984;5.088;2022-11-15T12:15:19;15.20;70.40
69626;DHT22;56847;51.984;5.088;2022-11-15T12:17:48;15.20;70.40
69626;DHT22;56847;51.984;5.088;2022-11-15T12:20:21;15.20;70.00
69626;DHT22;56847;51.984;5.088;2022-11-15T12:23:19;15.30;70.10
69626;DHT22;56847;51.984;5.088;2022-11-15T12:26:06;15.30;69.90
69626;DHT22;56847;51.984;5.088;2022-11-15T12:31:38;15.30;69.60
69626;DHT22;56847;51.984;5.088;2022-11-15T12:34:34;15.40;69.30
69626;DHT22;56847;51.984;5.088;2022-11-15T12:40:24;15.40;68.90
69626;DHT22;56847;51.984;5.088;2022-11-15T12:58:57;15.40;68.10
69626;DHT22;56847;51.984;5.088;2022-11-15T13:07:01;15.30;67.80
69626;DHT22;56847;51.984;5.088;2022-11-15T13:12:09;15.20;67.30
69626;DHT22;56847;51.984;5.088;2022-11-15T13:18:19;15.10;67.50
69626;DHT22;56847;51.984;5.088;2022-11-15T13:20:29;15.00;67.80
69626;DHT22;56847;51.984;5.088;2022-11-15T13:23:01;15.00;67.60
69626;DHT22;56847;51.984;5.088;2022-11-15T13:30:51;14.90;67.80
69626;DHT22;56847;51.984;5.088;2022-11-15T13:35:53;14.90;67.90
69626;DHT22;56847;51.984;5.088;2022-11-15T13:40:51;14.80;68.00
69626;DHT22;56847;51.984;5.088;2022-11-15T13:48:46;15.00;68.00
69626;DHT22;56847;51.984;5.088;2022-11-15T13:56:52;15.10;67.20
69626;DHT22;56847;51.984;5.088;2022-11-15T13:59:33;15.00;67.10
69626;DHT22;56847;51.984;5.088;2022-11-15T14:02:11;15.10;67.20
69626;DHT22;56847;51.984;5.088;2022-11-15T14:04:49;15.10;67.00
69626;DHT22;56847;51.984;5.088;2022-11-15T14:07:19;15.10;66.80
69626;DHT22;56847;51.984;5.088;2022-11-15T14:09:47;15.10;66.70
69626;DHT22;56847;51.984;5.088;2022-11-15T14:14:57;15.10;66.40
69626;DHT22;56847;51.984;5.088;2022-11-15T14:19:57;15.10;66.20
69626;DHT22;56847;51.984;5.088;2022-11-15T14:22:29;15.10;65.90
69626;DHT22;56847;51.984;5.088;2022-11-15T14:25:18;15.10;66.00
69626;DHT22;56847;51.984;5.088;2022-11-15T14:28:12;15.10;65.40
69626;DHT22;56847;51.984;5.088;2022-11-15T14:30:42;15.00;66.00
69626;DHT22;56847;51.984;5.088;2022-11-15T14:33:19;15.00;66.30
69626;DHT22;56847;51.984;5.088;2022-11-15T14:35:47;15.00;66.60
69626;DHT22;56847;51.984;5.088;2022-11-15T14:38:14;15.00;66.70
69626;DHT22;56847;51.984;5.088;2022-11-15T14:40:41;14.90;66.90
69626;DHT22;56847;51.984;5.088;2022-11-15T14:43:10;14.90;66.90
69626;DHT22;56847;51.984;5.088;2022-11-15T14:45:38;14.80;67.10
69626;DHT22;56847;51.984;5.088;2022-11-15T14:48:05;14.80;67.10
69626;DHT22;56847;51.984;5.088;2022-11-15T14:50:33;14.80;67.30
69626;DHT22;56847;51.984;5.088;2022-11-15T14:53:00;14.80;67.40
69626;DHT22;56847;51.984;5.088;2022-11-15T14:55:29;14.80;67.30
69626;DHT22;56847;51.984;5.088;2022-11-15T14:57:58;14.70;67.30
69626;DHT22;56847;51.984;5.088;2022-11-15T15:00:25;14.70;67.20
69626;DHT22;56847;51.984;5.088;2022-11-15T15:03:00;14.70;67.30
69626;DHT22;56847;51.984;5.088;2022-11-15T15:05:37;14.70;67.40
69626;DHT22;56847;51.984;5.088;2022-11-15T15:08:07;14.70;67.30
69626;DHT22;56847;51.984;5.088;2022-11-15T15:10:39;14.60;67.00
69626;DHT22;56847;51.984;5.088;2022-11-15T15:13:45;14.60;67.10
69626;DHT22;56847;51.984;5.088;2022-11-15T15:16:16;14.60;67.00
69626;DHT22;56847;51.984;5.088;2022-11-15T15:18:44;14.60;67.00
69626;DHT22;56847;51.984;5.088;2022-11-15T15:23:49;14.50;66.80
69626;DHT22;56847;51.984;5.088;2022-11-15T15:26:19;14.50;66.40
69626;DHT22;56847;51.984;5.088;2022-11-15T15:28:46;14.50;66.70
69626;DHT22;56847;51.984;5.088;2022-11-15T15:31:15;14.50;66.70
69626;DHT22;56847;51.984;5.088;2022-11-15T15:33:42;14.50;66.90
69626;DHT22;56847;51.984;5.088;2022-11-15T15:36:11;14.50;66.80
69626;DHT22;56847;51.984;5.088;2022-11-15T15:38:38;14.50;66.90
69626;DHT22;56847;51.984;5.088;2022-11-15T15:41:11;14.50;66.90
69626;DHT22;56847;51.984;5.088;2022-11-15T15:43:44;14.50;67.00
69626;DHT22;56847;51.984;5.088;2022-11-15T15:46:14;14.50;66.90
69626;DHT22;56847;51.984;5.088;2022-11-15T15:48:41;14.50;66.90
69626;DHT22;56847;51.984;5.088;2022-11-15T15:51:08;14.40;67.10
69626;DHT22;56847;51.984;5.088;2022-11-15T15:53:45;14.40;67.00
69626;DHT22;56847;51.984;5.088;2022-11-15T15:56:12;14.50;66.90
69626;DHT22;56847;51.984;5.088;2022-11-15T15:58:39;14.50;67.00
69626;DHT22;56847;51.984;5.088;2022-11-15T16:01:06;14.50;66.90
69626;DHT22;56847;51.984;5.088;2022-11-15T16:03:33;14.50;66.80
69626;DHT22;56847;51.984;5.088;2022-11-15T16:06:04;14.50;66.90
69626;DHT22;56847;51.984;5.088;2022-11-15T16:08:31;14.50;67.00
69626;DHT22;56847;51.984;5.088;2022-11-15T16:11:18;14.50;66.90
69626;DHT22;56847;51.984;5.088;2022-11-15T16:13:45;14.50;66.90
69626;DHT22;56847;51.984;5.088;2022-11-15T16:16:13;14.50;66.90
69626;DHT22;56847;51.984;5.088;2022-11-15T16:18:41;14.50;67.00
69626;DHT22;56847;51.984;5.088;2022-11-15T16:21:08;14.50;67.10
69626;DHT22;56847;51.984;5.088;2022-11-15T16:23:37;14.50;66.90
69626;DHT22;56847;51.984;5.088;2022-11-15T16:28:49;14.50;66.90
69626;DHT22;56847;51.984;5.088;2022-11-15T16:31:16;14.50;67.10
69626;DHT22;56847;51.984;5.088;2022-11-15T16:33:45;14.50;67.30
69626;DHT22;56847;51.984;5.088;2022-11-15T16:36:20;14.50;67.50
69626;DHT22;56847;51.984;5.088;2022-11-15T16:38:55;14.50;67.70
69626;DHT22;56847;51.984;5.088;2022-11-15T16:41:22;14.40;67.90
69626;DHT22;56847;51.984;5.088;2022-11-15T16:43:49;14.40;67.90
69626;DHT22;56847;51.984;5.088;2022-11-15T16:46:22;14.40;68.20
69626;DHT22;56847;51.984;5.088;2022-11-15T16:48:50;14.40;68.40
69626;DHT22;56847;51.984;5.088;2022-11-15T16:51:17;14.30;68.70
69626;DHT22;56847;51.984;5.088;2022-11-15T16:53:44;14.30;69.00
69626;DHT22;56847;51.984;5.088;2022-11-15T16:56:32;14.20;69.30
69626;DHT22;56847;51.984;5.088;2022-11-15T16:59:00;14.20;69.60
69626;DHT22;56847;51.984;5.088;2022-11-15T17:01:30;14.20;70.00
69626;DHT22;56847;51.984;5.088;2022-11-15T17:04:01;14.20;70.20
69626;DHT22;56847;51.984;5.088;2022-11-15T17:06:39;14.20;70.40
69626;DHT22;56847;51.984;5.088;2022-11-15T17:09:20;14.10;70.60
69626;DHT22;56847;51.984;5.088;2022-11-15T17:11:51;14.10;71.00
69626;DHT22;56847;51.984;5.088;2022-11-15T17:14:18;14.10;71.30
69626;DHT22;56847;51.984;5.088;2022-11-15T17:16:45;14.00;71.50
69626;DHT22;56847;51.984;5.088;2022-11-15T17:19:14;14.00;71.90
69626;DHT22;56847;51.984;5.088;2022-11-15T17:21:42;14.00;72.20
69626;DHT22;56847;51.984;5.088;2022-11-15T17:24:09;14.00;72.40
69626;DHT22;56847;51.984;5.088;2022-11-15T17:26:37;13.90;72.60
69626;DHT22;56847;51.984;5.088;2022-11-15T17:29:06;13.90;72.80
69626;DHT22;56847;51.984;5.088;2022-11-15T17:31:37;13.90;72.90
69626;DHT22;56847;51.984;5.088;2022-11-15T17:34:05;13.90;73.20
69626;DHT22;56847;51.984;5.088;2022-11-15T17:36:33;13.90;73.30
69626;DHT22;56847;51.984;5.088;2022-11-15T17:39:13;13.80;73.50
69626;DHT22;56847;51.984;5.088;2022-11-15T17:41:41;13.80;74.00
69626;DHT22;56847;51.984;5.088;2022-11-15T17:44:10;13.80;74.20
69626;DHT22;56847;51.984;5.088;2022-11-15T17:46:37;13.70;74.50
69626;DHT22;56847;51.984;5.088;2022-11-15T17:49:06;13.70;74.70
69626;DHT22;56847;51.984;5.088;2022-11-15T17:51:33;13.60;75.00
69626;DHT22;56847;51.984;5.088;2022-11-15T17:54:01;13.60;75.40
69626;DHT22;56847;51.984;5.088;2022-11-15T17:56:37;13.60;75.40
69626;DHT22;56847;51.984;5.088;2022-11-15T17:59:15;13.60;75.80
69626;DHT22;56847;51.984;5.088;2022-11-15T18:01:50;13.50;75.90
69626;DHT22;56847;51.984;5.088;2022-11-15T18:04:20;13.50;76.40
69626;DHT22;56847;51.984;5.088;2022-11-15T18:06:49;13.50;76.60
69626;DHT22;56847;51.984;5.088;2022-11-15T18:09:29;13.50;76.70
69626;DHT22;56847;51.984;5.088;2022-11-15T18:12:30;13.50;77.00
69626;DHT22;56847;51.984;5.088;2022-11-15T18:14:57;13.50;77.40
69626;DHT22;56847;51.984;5.088;2022-11-15T18:17:31;13.50;77.80
69626;DHT22;56847;51.984;5.088;2022-11-15T18:20:14;13.50;77.80
69626;DHT22;56847;51.984;5.088;2022-11-15T18:23:04;13.50;78.10
69626;DHT22;56847;51.984;5.088;2022-11-15T18:25:35;13.50;78.30
69626;DHT22;56847;51.984;5.088;2022-11-15T18:28:21;13.50;78.40
69626;DHT22;56847;51.984;5.088;2022-11-15T18:30:58;13.50;78.40
69626;DHT22;56847;51.984;5.088;2022-11-15T18:33:53;13.50;78.60
69626;DHT22;56847;51.984;5.088;2022-11-15T18:36:35;13.50;78.70
69626;DHT22;56847;51.984;5.088;2022-11-15T18:39:06;13.50;78.80
69626;DHT22;56847;51.984;5.088;2022-11-15T18:41:36;13.50;78.90
69626;DHT22;56847;51.984;5.088;2022-11-15T18:44:27;13.50;79.00
69626;DHT22;56847;51.984;5.088;2022-11-15T18:46:55;13.50;79.30
69626;DHT22;56847;51.984;5.088;2022-11-15T18:49:27;13.50;79.30
69626;DHT22;56847;51.984;5.088;2022-11-15T18:51:54;13.50;79.40
69626;DHT22;56847;51.984;5.088;2022-11-15T18:54:22;13.60;79.50
69626;DHT22;56847;51.984;5.088;2022-11-15T18:56:56;13.60;79.70
69626;DHT22;56847;51.984;5.088;2022-11-15T18:59:24;13.60;79.80
69626;DHT22;56847;51.984;5.088;2022-11-15T19:01:53;13.60;79.90
69626;DHT22;56847;51.984;5.088;2022-11-15T19:04:24;13.60;80.00
69626;DHT22;56847;51.984;5.088;2022-11-15T19:06:52;13.60;80.00
69626;DHT22;56847;51.984;5.088;2022-11-15T19:09:19;13.60;80.00
69626;DHT22;56847;51.984;5.088;2022-11-15T19:11:47;13.60;80.00
69626;DHT22;56847;51.984;5.088;2022-11-15T19:14:17;13.60;80.10
69626;DHT22;56847;51.984;5.088;2022-11-15T19:16:48;13.60;80.20
69626;DHT22;56847;51.984;5.088;2022-11-15T19:19:21;13.70;80.30
69626;DHT22;56847;51.984;5.088;2022-11-15T19:21:54;13.70;80.40
69626;DHT22;56847;51.984;5.088;2022-11-15T19:24:27;13.70;80.40
69626;DHT22;56847;51.984;5.088;2022-11-15T19:26:56;13.70;80.40
69626;DHT22;56847;51.984;5.088;2022-11-15T19:29:23;13.70;80.50
69626;DHT22;56847;51.984;5.088;2022-11-15T19:31:53;13.70;80.60
69626;DHT22;56847;51.984;5.088;2022-11-15T19:34:20;13.70;80.60
69626;DHT22;56847;51.984;5.088;2022-11-15T19:36:47;13.70;80.70
69626;DHT22;56847;51.984;5.088;2022-11-15T19:39:15;13.70;80.80
69626;DHT22;56847;51.984;5.088;2022-11-15T19:41:44;13.70;80.80
69626;DHT22;56847;51.984;5.088;2022-11-15T19:44:12;13.70;80.90
69626;DHT22;56847;51.984;5.088;2022-11-15T19:46:39;13.70;81.00
69626;DHT22;56847;51.984;5.088;2022-11-15T19:49:09;13.70;81.20
69626;DHT22;56847;51.984;5.088;2022-11-15T19:51:38;13.80;81.20
69626;DHT22;56847;51.984;5.088;2022-11-15T19:54:07;13.80;81.10
69626;DHT22;56847;51.984;5.088;2022-11-15T19:56:36;13.80;81.20
69626;DHT22;56847;51.984;5.088;2022-11-15T19:59:04;13.80;81.20
69626;DHT22;56847;51.984;5.088;2022-11-15T20:01:34;13.80;81.20
69626;DHT22;56847;51.984;5.088;2022-11-15T20:04:06;13.80;81.30
69626;DHT22;56847;51.984;5.088;2022-11-15T20:06:39;13.80;81.50
69626;DHT22;56847;51.984;5.088;2022-11-15T20:09:45;13.90;81.40
69626;DHT22;56847;51.984;5.088;2022-11-15T20:12:12;13.80;81.60
69626;DHT22;56847;51.984;5.088;2022-11-15T20:14:43;13.90;81.70
69626;DHT22;56847;51.984;5.088;2022-11-15T20:17:11;13.90;81.60
69626;DHT22;56847;51.984;5.088;2022-11-15T20:19:39;13.90;81.60
69626;DHT22;56847;51.984;5.088;2022-11-15T20:22:06;13.90;81.70
69626;DHT22;56847;51.984;5.088;2022-11-15T20:24:33;13.90;81.70
69626;DHT22;56847;51.984;5.088;2022-11-15T20:27:05;13.90;81.70
69626;DHT22;56847;51.984;5.088;2022-11-15T20:29:32;14.00;81.80
69626;DHT22;56847;51.984;5.088;2022-11-15T20:32:05;14.00;81.70
69626;DHT22;56847;51.984;5.088;2022-11-15T20:34:32;14.00;81.80
69626;DHT22;56847;51.984;5.088;2022-11-15T20:36:59;14.00;81.80
69626;DHT22;56847;51.984;5.088;2022-11-15T20:39:27;14.00;81.80
69626;DHT22;56847;51.984;5.088;2022-11-15T20:41:54;14.00;81.80
69626;DHT22;56847;51.984;5.088;2022-11-15T20:44:21;14.00;81.80
69626;DHT22;56847;51.984;5.088;2022-11-15T20:46:48;14.10;81.80
69626;DHT22;56847;51.984;5.088;2022-11-15T20:49:15;14.10;81.80
69626;DHT22;56847;51.984;5.088;2022-11-15T20:51:42;14.10;82.00
69626;DHT22;56847;51.984;5.088;2022-11-15T20:54:12;14.10;81.90
69626;DHT22;56847;51.984;5.088;2022-11-15T20:56:40;14.10;82.10
69626;DHT22;56847;51.984;5.088;2022-11-15T20:59:07;14.10;82.10
69626;DHT22;56847;51.984;5.088;2022-11-15T21:01:34;14.10;82.10
69626;DHT22;56847;51.984;5.088;2022-11-15T21:04:02;14.10;82.10
69626;DHT22;56847;51.984;5.088;2022-11-15T21:06:32;14.10;82.10
69626;DHT22;56847;51.984;5.088;2022-11-15T21:08:59;14.20;82.10
69626;DHT22;56847;51.984;5.088;2022-11-15T21:11:46;14.20;82.10
69626;DHT22;56847;51.984;5.088;2022-11-15T21:14:31;14.20;82.20
69626;DHT22;56847;51.984;5.088;2022-11-15T21:16:59;14.20;82.20
69626;DHT22;56847;51.984;5.088;2022-11-15T21:19:51;14.20;82.20
69626;DHT22;56847;51.984;5.088;2022-11-15T21:22:19;14.20;82.20
69626;DHT22;56847;51.984;5.088;2022-11-15T21:24:46;14.20;82.20
69626;DHT22;56847;51.984;5.088;2022-11-15T21:27:12;14.20;82.20
69626;DHT22;56847;51.984;5.088;2022-11-15T21:29:43;14.20;82.20
69626;DHT22;56847;51.984;5.088;2022-11-15T21:32:11;14.20;82.30
69626;DHT22;56847;51.984;5.088;2022-11-15T21:34:38;14.30;82.30
69626;DHT22;56847;51.984;5.088;2022-11-15T21:37:14;14.30;82.30
69626;DHT22;56847;51.984;5.088;2022-11-15T21:39:42;14.30;82.40
69626;DHT22;56847;51.984;5.088;2022-11-15T21:42:09;14.30;82.40
69626;DHT22;56847;51.984;5.088;2022-11-15T21:44:36;14.30;82.40
69626;DHT22;56847;51.984;5.088;2022-11-15T21:47:03;14.30;82.30
69626;DHT22;56847;51.984;5.088;2022-11-15T21:49:35;14.30;82.50
69626;DHT22;56847;51.984;5.088;2022-11-15T21:52:03;14.30;82.50
69626;DHT22;56847;51.984;5.088;2022-11-15T21:54:32;14.30;82.40
69626;DHT22;56847;51.984;5.088;2022-11-15T21:56:59;14.30;82.30
69626;DHT22;56847;51.984;5.088;2022-11-15T21:59:29;14.30;82.40
69626;DHT22;56847;51.984;5.088;2022-11-15T22:01:58;14.30;82.50
69626;DHT22;56847;51.984;5.088;2022-11-15T22:04:41;14.30;82.50
69626;DHT22;56847;51.984;5.088;2022-11-15T22:07:08;14.30;82.60
69626;DHT22;56847;51.984;5.088;2022-11-15T22:09:35;14.30;82.50
69626;DHT22;56847;51.984;5.088;2022-11-15T22:12:02;14.30;82.70
69626;DHT22;56847;51.984;5.088;2022-11-15T22:14:28;14.30;82.70
69626;DHT22;56847;51.984;5.088;2022-11-15T22:16:55;14.30;82.80
69626;DHT22;56847;51.984;5.088;2022-11-15T22:19:22;14.30;82.80
69626;DHT22;56847;51.984;5.088;2022-11-15T22:21:49;14.30;82.90
69626;DHT22;56847;51.984;5.088;2022-11-15T22:24:16;14.30;82.80
69626;DHT22;56847;51.984;5.088;2022-11-15T22:26:44;14.30;82.80
69626;DHT22;56847;51.984;5.088;2022-11-15T22:29:11;14.30;82.90
69626;DHT22;56847;51.984;5.088;2022-11-15T22:31:38;14.30;82.90
69626;DHT22;56847;51.984;5.088;2022-11-15T22:34:04;14.30;82.90
69626;DHT22;56847;51.984;5.088;2022-11-15T22:42:08;14.30;82.90
69626;DHT22;56847;51.984;5.088;2022-11-15T22:44:40;14.30;83.10
69626;DHT22;56847;51.984;5.088;2022-11-15T22:47:23;14.30;83.10
69626;DHT22;56847;51.984;5.088;2022-11-15T22:49:53;14.30;83.10